createdAt,value
2017-01-17T00:00:08.304Z,-3.68
2017-01-17T00:00:38.333Z,-3.59
2017-01-17T00:01:08.365Z,-3.76
2017-01-17T00:01:38.392Z,-3.76
2017-01-17T00:02:08.432Z,-3.61
2017-01-17T00:02:38.447Z,-3.64
2017-01-17T00:03:08.477Z,-3.74
2017-01-17T00:03:38.504Z,-3.74
2017-01-17T00:04:08.535Z,-3.72
2017-01-17T00:04:38.561Z,-3.7
2017-01-17T00:05:08.586Z,-3.72
2017-01-17T00:05:38.616Z,-3.72
2017-01-17T00:06:08.648Z,-3.79
2017-01-17T00:06:38.676Z,-3.77
2017-01-17T00:07:08.697Z,-3.7
2017-01-17T00:07:38.733Z,-3.65
2017-01-17T00:08:08.763Z,-3.68
2017-01-17T00:08:38.786Z,-3.7
2017-01-17T00:09:08.815Z,-3.68
2017-01-17T00:09:38.842Z,-3.69
2017-01-17T00:10:08.878Z,-3.74
2017-01-17T00:10:38.904Z,-3.7
2017-01-17T00:11:08.923Z,-3.72
2017-01-17T00:11:38.977Z,-3.68
2017-01-17T00:12:08.978Z,-3.77
2017-01-17T00:12:39.007Z,-3.62
2017-01-17T00:13:09.039Z,-3.7
2017-01-17T00:13:39.064Z,-3.7
2017-01-17T00:14:09.096Z,-3.76
2017-01-17T00:14:39.127Z,-3.69
2017-01-17T00:15:09.153Z,-3.72
2017-01-17T00:15:39.178Z,-3.76
2017-01-17T00:16:09.206Z,-3.76
2017-01-17T00:16:39.235Z,-3.77
2017-01-17T00:17:09.262Z,-3.72
2017-01-17T00:17:39.291Z,-3.83
2017-01-17T00:18:09.319Z,-3.84
2017-01-17T00:18:39.350Z,-3.76
2017-01-17T00:19:09.382Z,-3.74
2017-01-17T00:19:39.410Z,-3.83
2017-01-17T00:20:09.428Z,-3.8
2017-01-17T00:20:39.459Z,-3.79
2017-01-17T00:21:09.483Z,-3.81
2017-01-17T00:21:39.515Z,-3.77
2017-01-17T00:22:09.537Z,-3.86
2017-01-17T00:22:39.570Z,-3.84
2017-01-17T00:23:09.605Z,-3.77
2017-01-17T00:23:39.627Z,-3.8
2017-01-17T00:24:09.657Z,-3.86
2017-01-17T00:24:39.692Z,-3.81
2017-01-17T00:25:09.718Z,-3.81
2017-01-17T00:25:39.739Z,-3.88
2017-01-17T00:26:09.770Z,-3.81
2017-01-17T00:26:39.799Z,-3.84
2017-01-17T00:27:09.829Z,-3.86
2017-01-17T00:27:39.859Z,-3.81
2017-01-17T00:28:09.883Z,-3.91
2017-01-17T00:28:39.916Z,-3.89
2017-01-17T00:29:09.939Z,-3.92
2017-01-17T00:29:39.967Z,-3.86
2017-01-17T00:30:09.993Z,-3.88
2017-01-17T00:30:40.021Z,-3.88
2017-01-17T00:31:10.049Z,-3.94
2017-01-17T00:31:40.082Z,-3.91
2017-01-17T00:32:10.106Z,-3.91
2017-01-17T00:32:40.135Z,-3.91
2017-01-17T00:33:10.170Z,-3.84
2017-01-17T00:33:40.190Z,-3.91
2017-01-17T00:34:10.218Z,-3.89
2017-01-17T00:34:40.249Z,-3.91
2017-01-17T00:35:10.277Z,-3.86
2017-01-17T00:35:40.302Z,-3.83
2017-01-17T00:36:10.337Z,-3.86
2017-01-17T00:36:40.361Z,-3.84
2017-01-17T00:37:10.384Z,-3.91
2017-01-17T00:37:40.414Z,-3.76
2017-01-17T00:38:10.471Z,-3.76
2017-01-17T00:38:40.475Z,-3.84
2017-01-17T00:39:10.502Z,-3.81
2017-01-17T00:39:40.529Z,-3.77
2017-01-17T00:40:10.555Z,-3.68
2017-01-17T00:40:40.587Z,-3.72
2017-01-17T00:41:10.615Z,-3.72
2017-01-17T00:41:40.645Z,-3.64
2017-01-17T00:42:10.666Z,-3.72
2017-01-17T00:42:40.711Z,-3.69
2017-01-17T00:43:10.733Z,-3.61
2017-01-17T00:43:40.765Z,-3.58
2017-01-17T00:44:10.783Z,-3.76
2017-01-17T00:44:40.807Z,-3.68
2017-01-17T00:45:10.841Z,-3.64
2017-01-17T00:45:40.869Z,-3.62
2017-01-17T00:46:10.894Z,-3.61
2017-01-17T00:46:40.929Z,-3.61
2017-01-17T00:47:10.952Z,-3.64
2017-01-17T00:47:40.980Z,-3.61
2017-01-17T00:48:11.013Z,-3.61
2017-01-17T00:48:41.038Z,-3.54
2017-01-17T00:49:11.065Z,-3.55
2017-01-17T00:49:41.092Z,-3.51
2017-01-17T00:50:11.118Z,-3.58
2017-01-17T00:50:41.145Z,-3.57
2017-01-17T00:51:11.172Z,-3.62
2017-01-17T00:51:41.209Z,-3.51
2017-01-17T00:52:11.236Z,-3.58
2017-01-17T00:52:41.295Z,-3.54
2017-01-17T00:53:11.285Z,-3.58
2017-01-17T00:53:41.322Z,-3.55
2017-01-17T00:54:11.346Z,-3.51
2017-01-17T00:54:41.380Z,-3.55
2017-01-17T00:55:11.407Z,-3.47
2017-01-17T00:55:41.433Z,-3.54
2017-01-17T00:56:11.492Z,-3.55
2017-01-17T00:56:41.493Z,-3.57
2017-01-17T00:57:11.514Z,-3.52
2017-01-17T00:57:41.545Z,-3.62
2017-01-17T00:58:11.573Z,-3.62
2017-01-17T00:58:41.605Z,-3.64
2017-01-17T00:59:11.630Z,-3.74
2017-01-17T00:59:41.660Z,-3.74
2017-01-17T01:00:11.687Z,-3.68
2017-01-17T01:00:41.713Z,-3.7
2017-01-17T01:01:11.743Z,-3.68
2017-01-17T01:01:41.779Z,-3.65
2017-01-17T01:02:11.803Z,-3.7
2017-01-17T01:02:41.830Z,-3.72
2017-01-17T01:03:11.882Z,-3.76
2017-01-17T01:03:41.885Z,-3.77
2017-01-17T01:04:11.915Z,-3.86
2017-01-17T01:04:41.943Z,-3.77
2017-01-17T01:05:11.979Z,-3.89
2017-01-17T01:05:42.002Z,-3.76
2017-01-17T01:06:12.029Z,-3.84
2017-01-17T01:06:42.078Z,-3.83
2017-01-17T01:07:12.081Z,-3.91
2017-01-17T01:07:42.110Z,-3.8
2017-01-17T01:08:12.137Z,-3.83
2017-01-17T01:08:42.173Z,-3.83
2017-01-17T01:09:12.193Z,-3.88
2017-01-17T01:09:42.223Z,-3.83
2017-01-17T01:10:12.255Z,-3.81
2017-01-17T01:10:42.290Z,-3.89
2017-01-17T01:11:12.306Z,-3.91
2017-01-17T01:11:42.336Z,-3.92
2017-01-17T01:12:12.361Z,-3.94
2017-01-17T01:12:42.396Z,-4.01
2017-01-17T01:13:12.424Z,-4.02
2017-01-17T01:13:42.444Z,-4.01
2017-01-17T01:14:12.478Z,-3.99
2017-01-17T01:14:42.503Z,-3.99
2017-01-17T01:15:12.535Z,-4.01
2017-01-17T01:15:42.575Z,-3.97
2017-01-17T01:16:12.592Z,-3.92
2017-01-17T01:16:42.624Z,-3.97
2017-01-17T01:17:12.648Z,-4.01
2017-01-17T01:17:42.672Z,-4.04
2017-01-17T01:18:12.703Z,-4.1
2017-01-17T01:18:42.724Z,-4.07
2017-01-17T01:19:12.755Z,-4.01
2017-01-17T01:19:42.782Z,-4.04
2017-01-17T01:20:12.815Z,-4.02
2017-01-17T01:20:42.844Z,-4.09
2017-01-17T01:21:12.868Z,-4.17
2017-01-17T01:21:42.953Z,-4.17
2017-01-17T01:22:12.929Z,-4.16
2017-01-17T01:22:42.953Z,-4.2
2017-01-17T01:23:12.986Z,-4.2
2017-01-17T01:23:43.010Z,-4.16
2017-01-17T01:24:13.035Z,-4.22
2017-01-17T01:24:43.062Z,-4.2
2017-01-17T01:25:13.099Z,-4.22
2017-01-17T01:25:43.132Z,-4.31
2017-01-17T01:26:13.161Z,-4.26
2017-01-17T01:26:43.178Z,-4.31
2017-01-17T01:27:13.203Z,-4.28
2017-01-17T01:27:43.229Z,-4.28
2017-01-17T01:28:13.267Z,-4.31
2017-01-17T01:28:43.293Z,-4.31
2017-01-17T01:29:13.319Z,-4.38
2017-01-17T01:29:43.344Z,-4.34
2017-01-17T01:30:13.377Z,-4.46
2017-01-17T01:30:43.405Z,-4.54
2017-01-17T01:31:13.433Z,-4.51
2017-01-17T01:31:43.454Z,-4.58
2017-01-17T01:32:13.494Z,-4.65
2017-01-17T01:32:43.513Z,-4.58
2017-01-17T01:33:13.539Z,-4.67
2017-01-17T01:33:43.571Z,-4.7
2017-01-17T01:34:13.596Z,-4.73
2017-01-17T01:34:43.627Z,-4.67
2017-01-17T01:35:13.651Z,-4.76
2017-01-17T01:35:43.683Z,-4.7
2017-01-17T01:36:13.711Z,-4.76
2017-01-17T01:36:43.732Z,-4.74
2017-01-17T01:37:13.811Z,-4.87
2017-01-17T01:37:43.795Z,-4.84
2017-01-17T01:38:13.822Z,-4.91
2017-01-17T01:38:43.851Z,-4.9
2017-01-17T01:39:13.880Z,-4.95
2017-01-17T01:39:43.937Z,-4.97
2017-01-17T01:40:13.932Z,-4.93
2017-01-17T01:40:43.958Z,-5.03
2017-01-17T01:41:13.997Z,-5.01
2017-01-17T01:41:44.015Z,-5.06
2017-01-17T01:42:14.049Z,-5.06
2017-01-17T01:42:44.077Z,-5.11
2017-01-17T01:43:14.100Z,-5.06
2017-01-17T01:43:44.131Z,-5.16
2017-01-17T01:44:14.160Z,-5.12
2017-01-17T01:44:44.189Z,-5.06
2017-01-17T01:45:14.243Z,-5.16
2017-01-17T01:45:44.237Z,-5.11
2017-01-17T01:46:14.263Z,-5.23
2017-01-17T01:46:44.291Z,-5.21
2017-01-17T01:47:14.323Z,-5.09
2017-01-17T01:47:44.357Z,-5.21
2017-01-17T01:48:14.379Z,-5.16
2017-01-17T01:48:44.407Z,-5.16
2017-01-17T01:49:14.433Z,-5.17
2017-01-17T01:49:44.460Z,-5.23
2017-01-17T01:50:14.492Z,-5.2
2017-01-17T01:50:44.519Z,-5.2
2017-01-17T01:51:14.542Z,-5.25
2017-01-17T01:51:44.574Z,-5.28
2017-01-17T01:52:14.602Z,-5.25
2017-01-17T01:52:44.635Z,-5.35
2017-01-17T01:53:14.650Z,-5.25
2017-01-17T01:53:44.683Z,-5.31
2017-01-17T01:54:14.705Z,-5.28
2017-01-17T01:54:44.742Z,-5.27
2017-01-17T01:55:14.770Z,-5.35
2017-01-17T01:55:44.794Z,-5.38
2017-01-17T01:56:14.847Z,-5.42
2017-01-17T01:56:44.851Z,-5.45
2017-01-17T01:57:14.873Z,-5.45
2017-01-17T01:57:44.905Z,-5.38
2017-01-17T01:58:14.926Z,-5.43
2017-01-17T01:58:44.962Z,-5.42
2017-01-17T01:59:14.990Z,-5.42
2017-01-17T01:59:45.019Z,-5.43
2017-01-17T02:00:15.042Z,-5.51
2017-01-17T02:00:45.070Z,-5.45
2017-01-17T02:01:15.101Z,-5.51
2017-01-17T02:01:45.124Z,-5.45
2017-01-17T02:02:15.156Z,-5.43
2017-01-17T02:02:45.183Z,-5.52
2017-01-17T02:03:15.209Z,-5.51
2017-01-17T02:03:45.237Z,-5.52
2017-01-17T02:04:15.266Z,-5.49
2017-01-17T02:04:45.292Z,-5.49
2017-01-17T02:05:15.328Z,-5.62
2017-01-17T02:05:45.350Z,-5.64
2017-01-17T02:06:15.379Z,-5.62
2017-01-17T02:06:45.408Z,-5.57
2017-01-17T02:07:15.431Z,-5.63
2017-01-17T02:07:45.505Z,-5.6
2017-01-17T02:08:15.484Z,-5.6
2017-01-17T02:08:45.512Z,-5.62
2017-01-17T02:09:15.540Z,-5.6
2017-01-17T02:09:45.564Z,-5.66
2017-01-17T02:10:15.594Z,-5.62
2017-01-17T02:10:45.621Z,-5.6
2017-01-17T02:11:15.658Z,-5.67
2017-01-17T02:11:45.679Z,-5.57
2017-01-17T02:12:15.708Z,-5.66
2017-01-17T02:12:45.733Z,-5.66
2017-01-17T02:13:15.771Z,-5.57
2017-01-17T02:13:45.790Z,-5.62
2017-01-17T02:14:15.819Z,-5.59
2017-01-17T02:14:45.844Z,-5.63
2017-01-17T02:15:15.876Z,-5.62
2017-01-17T02:15:45.896Z,-5.6
2017-01-17T02:16:15.931Z,-5.52
2017-01-17T02:16:45.953Z,-5.52
2017-01-17T02:17:15.983Z,-5.55
2017-01-17T02:17:46.013Z,-5.49
2017-01-17T02:18:16.036Z,-5.52
2017-01-17T02:18:46.069Z,-5.48
2017-01-17T02:19:16.100Z,-5.39
2017-01-17T02:19:46.150Z,-5.45
2017-01-17T02:20:16.145Z,-5.48
2017-01-17T02:20:46.170Z,-5.45
2017-01-17T02:21:16.211Z,-5.42
2017-01-17T02:21:46.231Z,-5.49
2017-01-17T02:22:16.264Z,-5.39
2017-01-17T02:22:46.290Z,-5.43
2017-01-17T02:23:16.312Z,-5.42
2017-01-17T02:23:46.338Z,-5.43
2017-01-17T02:24:16.383Z,-5.43
2017-01-17T02:24:46.391Z,-5.42
2017-01-17T02:25:16.432Z,-5.41
2017-01-17T02:25:46.462Z,-5.43
2017-01-17T02:26:16.482Z,-5.43
2017-01-17T02:26:46.505Z,-5.43
2017-01-17T02:27:16.538Z,-5.39
2017-01-17T02:27:46.566Z,-5.41
2017-01-17T02:28:16.899Z,-5.39
2017-01-17T02:28:46.649Z,-5.48
2017-01-17T02:29:16.649Z,-5.39
2017-01-17T02:29:46.672Z,-5.45
2017-01-17T02:30:16.704Z,-5.49
2017-01-17T02:30:46.734Z,-5.51
2017-01-17T02:31:16.761Z,-5.51
2017-01-17T02:31:46.781Z,-5.45
2017-01-17T02:32:16.818Z,-5.52
2017-01-17T02:32:46.842Z,-5.53
2017-01-17T02:33:16.877Z,-5.46
2017-01-17T02:33:46.894Z,-5.52
2017-01-17T02:34:16.931Z,-5.52
2017-01-17T02:34:46.948Z,-5.55
2017-01-17T02:35:16.989Z,-5.6
2017-01-17T02:35:47.015Z,-5.62
2017-01-17T02:36:17.037Z,-5.59
2017-01-17T02:36:47.067Z,-5.63
2017-01-17T02:37:17.091Z,-5.62
2017-01-17T02:37:47.120Z,-5.59
2017-01-17T02:38:17.158Z,-5.63
2017-01-17T02:38:47.174Z,-5.69
2017-01-17T02:39:17.199Z,-5.67
2017-01-17T02:39:47.227Z,-5.66
2017-01-17T02:40:17.253Z,-5.69
2017-01-17T02:40:47.282Z,-5.66
2017-01-17T02:41:17.315Z,-5.64
2017-01-17T02:41:47.341Z,-5.67
2017-01-17T02:42:17.367Z,-5.78
2017-01-17T02:42:47.392Z,-5.7
2017-01-17T02:43:17.426Z,-5.71
2017-01-17T02:43:47.444Z,-5.64
2017-01-17T02:44:17.472Z,-5.69
2017-01-17T02:44:47.504Z,-5.77
2017-01-17T02:45:17.536Z,-5.69
2017-01-17T02:45:47.566Z,-5.7
2017-01-17T02:46:17.621Z,-5.69
2017-01-17T02:46:47.612Z,-5.69
2017-01-17T02:47:17.644Z,-5.64
2017-01-17T02:47:47.680Z,-5.71
2017-01-17T02:48:17.699Z,-5.67
2017-01-17T02:48:47.729Z,-5.75
2017-01-17T02:49:17.754Z,-5.73
2017-01-17T02:49:47.785Z,-5.78
2017-01-17T02:50:17.804Z,-5.77
2017-01-17T02:50:47.837Z,-5.82
2017-01-17T02:51:17.879Z,-5.75
2017-01-17T02:51:47.896Z,-5.8
2017-01-17T02:52:17.963Z,-5.8
2017-01-17T02:52:48.187Z,-5.73
2017-01-17T02:53:18.006Z,-5.81
2017-01-17T02:53:48.208Z,-5.81
2017-01-17T02:54:18.031Z,-5.85
2017-01-17T02:54:48.070Z,-5.81
2017-01-17T02:55:18.089Z,-5.78
2017-01-17T02:55:48.109Z,-5.85
2017-01-17T02:56:18.148Z,-5.78
2017-01-17T02:56:48.172Z,-5.73
2017-01-17T02:57:18.196Z,-5.78
2017-01-17T02:57:48.230Z,-5.8
2017-01-17T02:58:18.256Z,-5.84
2017-01-17T02:58:48.588Z,-5.78
2017-01-17T02:59:18.313Z,-5.84
2017-01-17T02:59:48.333Z,-5.84
2017-01-17T03:00:18.365Z,-5.88
2017-01-17T03:00:48.391Z,-5.75
2017-01-17T03:01:18.415Z,-5.84
2017-01-17T03:01:48.441Z,-5.8
2017-01-17T03:02:18.472Z,-5.84
2017-01-17T03:02:48.505Z,-5.85
2017-01-17T03:03:18.531Z,-5.88
2017-01-17T03:03:48.562Z,-5.84
2017-01-17T03:04:18.586Z,-5.84
2017-01-17T03:04:48.614Z,-5.84
2017-01-17T03:05:18.646Z,-5.88
2017-01-17T03:05:48.664Z,-5.81
2017-01-17T03:06:18.698Z,-5.82
2017-01-17T03:06:48.722Z,-5.84
2017-01-17T03:07:18.752Z,-5.87
2017-01-17T03:07:48.782Z,-5.82
2017-01-17T03:08:18.814Z,-5.85
2017-01-17T03:08:48.832Z,-5.81
2017-01-17T03:09:18.864Z,-5.85
2017-01-17T03:09:48.888Z,-5.92
2017-01-17T03:10:18.915Z,-5.85
2017-01-17T03:10:48.951Z,-5.91
2017-01-17T03:11:18.963Z,-5.9
2017-01-17T03:11:49.153Z,-5.75
2017-01-17T03:12:19.030Z,-5.82
2017-01-17T03:12:49.051Z,-5.77
2017-01-17T03:13:19.082Z,-5.75
2017-01-17T03:13:49.110Z,-5.9
2017-01-17T03:14:19.144Z,-5.77
2017-01-17T03:14:49.167Z,-5.84
2017-01-17T03:15:19.201Z,-5.75
2017-01-17T03:15:49.223Z,-5.9
2017-01-17T03:16:19.250Z,-5.84
2017-01-17T03:16:49.272Z,-5.84
2017-01-17T03:17:19.301Z,-5.82
2017-01-17T03:17:49.331Z,-5.88
2017-01-17T03:18:19.359Z,-5.84
2017-01-17T03:18:49.394Z,-5.85
2017-01-17T03:19:19.411Z,-5.84
2017-01-17T03:19:49.441Z,-5.92
2017-01-17T03:20:19.470Z,-5.92
2017-01-17T03:20:49.502Z,-5.92
2017-01-17T03:21:19.522Z,-5.96
2017-01-17T03:21:49.557Z,-5.91
2017-01-17T03:22:19.583Z,-5.96
2017-01-17T03:22:49.604Z,-5.91
2017-01-17T03:23:19.639Z,-6.02
2017-01-17T03:23:49.661Z,-5.99
2017-01-17T03:24:19.697Z,-6
2017-01-17T03:24:49.717Z,-5.96
2017-01-17T03:25:19.757Z,-6.06
2017-01-17T03:25:49.778Z,-6.1
2017-01-17T03:26:19.798Z,-6.14
2017-01-17T03:26:49.828Z,-6.05
2017-01-17T03:27:19.873Z,-6
2017-01-17T03:27:49.887Z,-6.02
2017-01-17T03:28:19.910Z,-6.08
2017-01-17T03:28:49.933Z,-6.06
2017-01-17T03:29:19.965Z,-6.05
2017-01-17T03:29:49.995Z,-6.08
2017-01-17T03:30:20.023Z,-6.08
2017-01-17T03:30:50.045Z,-6.09
2017-01-17T03:31:20.073Z,-5.99
2017-01-17T03:31:50.097Z,-5.92
2017-01-17T03:32:20.133Z,-6.1
2017-01-17T03:32:50.165Z,-6.08
2017-01-17T03:33:20.188Z,-6.02
2017-01-17T03:33:50.213Z,-6
2017-01-17T03:34:20.245Z,-5.98
2017-01-17T03:34:50.270Z,-5.92
2017-01-17T03:35:20.300Z,-5.98
2017-01-17T03:35:50.320Z,-5.91
2017-01-17T03:36:20.355Z,-5.96
2017-01-17T03:36:50.379Z,-5.98
2017-01-17T03:37:20.408Z,-5.9
2017-01-17T03:37:50.433Z,-5.85
2017-01-17T03:38:20.461Z,-5.88
2017-01-17T03:38:50.489Z,-5.81
2017-01-17T03:39:20.512Z,-5.92
2017-01-17T03:39:50.554Z,-5.87
2017-01-17T03:40:20.572Z,-5.84
2017-01-17T03:40:50.599Z,-5.87
2017-01-17T03:41:20.626Z,-5.84
2017-01-17T03:41:50.652Z,-5.84
2017-01-17T03:42:20.676Z,-5.85
2017-01-17T03:42:50.706Z,-5.81
2017-01-17T03:43:20.731Z,-5.81
2017-01-17T03:43:50.761Z,-5.91
2017-01-17T03:44:20.792Z,-5.91
2017-01-17T03:44:50.817Z,-5.8
2017-01-17T03:45:20.849Z,-5.85
2017-01-17T03:45:50.878Z,-5.87
2017-01-17T03:46:20.905Z,-5.91
2017-01-17T03:46:50.933Z,-5.88
2017-01-17T03:47:20.959Z,-5.82
2017-01-17T03:47:50.985Z,-5.81
2017-01-17T03:48:21.012Z,-5.75
2017-01-17T03:48:51.044Z,-5.81
2017-01-17T03:49:21.070Z,-5.71
2017-01-17T03:49:51.091Z,-5.77
2017-01-17T03:50:21.130Z,-5.85
2017-01-17T03:50:51.150Z,-5.81
2017-01-17T03:51:21.186Z,-5.75
2017-01-17T03:51:51.238Z,-5.81
2017-01-17T03:52:21.231Z,-5.66
2017-01-17T03:52:51.262Z,-5.77
2017-01-17T03:53:21.318Z,-5.8
2017-01-17T03:53:51.313Z,-5.69
2017-01-17T03:54:21.354Z,-5.69
2017-01-17T03:54:51.365Z,-5.66
2017-01-17T03:55:21.408Z,-5.67
2017-01-17T03:55:51.430Z,-5.63
2017-01-17T03:56:21.461Z,-5.55
2017-01-17T03:56:51.487Z,-5.59
2017-01-17T03:57:21.518Z,-5.6
2017-01-17T03:57:51.566Z,-5.55
2017-01-17T03:58:21.567Z,-5.6
2017-01-17T03:58:51.593Z,-5.48
2017-01-17T03:59:21.622Z,-5.46
2017-01-17T03:59:51.651Z,-5.46
2017-01-17T04:00:21.978Z,-5.43
2017-01-17T04:00:51.704Z,-5.45
2017-01-17T04:01:21.735Z,-5.43
2017-01-17T04:01:51.760Z,-5.43
2017-01-17T04:02:21.789Z,-5.42
2017-01-17T04:02:51.816Z,-5.42
2017-01-17T04:03:21.843Z,-5.35
2017-01-17T04:03:51.870Z,-5.42
2017-01-17T04:04:22.044Z,-5.35
2017-01-17T04:04:51.924Z,-5.41
2017-01-17T04:05:21.988Z,-5.28
2017-01-17T04:05:51.982Z,-5.38
2017-01-17T04:06:22.011Z,-5.23
2017-01-17T04:06:52.040Z,-5.3
2017-01-17T04:07:22.069Z,-5.31
2017-01-17T04:07:52.108Z,-5.25
2017-01-17T04:08:22.127Z,-5.27
2017-01-17T04:08:52.152Z,-5.25
2017-01-17T04:09:22.180Z,-5.2
2017-01-17T04:09:52.212Z,-5.2
2017-01-17T04:10:22.380Z,-5.16
2017-01-17T04:10:52.251Z,-5.17
2017-01-17T04:11:22.286Z,-5.2
2017-01-17T04:11:52.318Z,-5.08
2017-01-17T04:12:22.345Z,-5.2
2017-01-17T04:12:52.374Z,-5.09
2017-01-17T04:13:22.402Z,-5.12
2017-01-17T04:13:52.434Z,-5.06
2017-01-17T04:14:22.604Z,-5.23
2017-01-17T04:14:52.492Z,-5.09
2017-01-17T04:15:22.508Z,-5.16
2017-01-17T04:15:52.538Z,-5.24
2017-01-17T04:16:22.566Z,-5.11
2017-01-17T04:16:52.589Z,-5.2
2017-01-17T04:17:22.619Z,-5.2
2017-01-17T04:17:52.651Z,-5.13
2017-01-17T04:18:22.680Z,-5.09
2017-01-17T04:18:52.709Z,-5.16
2017-01-17T04:19:22.732Z,-5.06
2017-01-17T04:19:52.767Z,-5.17
2017-01-17T04:20:22.791Z,-5.08
2017-01-17T04:20:52.812Z,-5.12
2017-01-17T04:21:22.846Z,-5.11
2017-01-17T04:21:52.872Z,-5.12
2017-01-17T04:22:22.899Z,-5.05
2017-01-17T04:22:52.930Z,-5.2
2017-01-17T04:23:22.955Z,-5.13
2017-01-17T04:23:52.981Z,-5.24
2017-01-17T04:24:23.171Z,-5.2
2017-01-17T04:24:53.042Z,-5.12
2017-01-17T04:25:23.067Z,-5.05
2017-01-17T04:25:53.097Z,-5.09
2017-01-17T04:26:23.122Z,-5.09
2017-01-17T04:26:53.148Z,-5.17
2017-01-17T04:27:23.177Z,-5.09
2017-01-17T04:27:53.215Z,-5.08
2017-01-17T04:28:23.236Z,-5.13
2017-01-17T04:28:53.259Z,-5.11
2017-01-17T04:29:23.294Z,-5.16
2017-01-17T04:29:53.321Z,-5.16
2017-01-17T04:30:23.343Z,-5.16
2017-01-17T04:30:53.677Z,-5.16
2017-01-17T04:31:23.425Z,-5.13
2017-01-17T04:31:53.425Z,-5.13
2017-01-17T04:32:23.485Z,-5.05
2017-01-17T04:32:53.488Z,-5.09
2017-01-17T04:33:23.513Z,-5.05
2017-01-17T04:33:53.536Z,-5.11
2017-01-17T04:34:23.568Z,-5.06
2017-01-17T04:34:53.600Z,-5.02
2017-01-17T04:35:23.631Z,-5.09
2017-01-17T04:35:53.651Z,-5.01
2017-01-17T04:36:23.681Z,-5.08
2017-01-17T04:36:53.709Z,-5.05
2017-01-17T04:37:23.731Z,-5.09
2017-01-17T04:37:53.769Z,-5.05
2017-01-17T04:38:23.800Z,-5.13
2017-01-17T04:38:53.819Z,-5.17
2017-01-17T04:39:23.854Z,-5.13
2017-01-17T04:39:53.876Z,-5.2
2017-01-17T04:40:23.902Z,-5.21
2017-01-17T04:40:53.930Z,-5.2
2017-01-17T04:41:23.959Z,-5.12
2017-01-17T04:41:53.979Z,-5.08
2017-01-17T04:42:24.014Z,-5.21
2017-01-17T04:42:54.044Z,-5.13
2017-01-17T04:43:24.074Z,-5.2
2017-01-17T04:43:54.096Z,-5.13
2017-01-17T04:44:24.131Z,-5.12
2017-01-17T04:44:54.150Z,-5.09
2017-01-17T04:45:24.182Z,-5.17
2017-01-17T04:45:54.212Z,-5.11
2017-01-17T04:46:24.235Z,-5.12
2017-01-17T04:46:54.265Z,-5.11
2017-01-17T04:47:24.292Z,-5.13
2017-01-17T04:47:54.321Z,-5.2
2017-01-17T04:48:24.350Z,-5.09
2017-01-17T04:48:54.377Z,-5.17
2017-01-17T04:49:24.401Z,-5.13
2017-01-17T04:49:54.433Z,-5.16
2017-01-17T04:50:24.455Z,-5.11
2017-01-17T04:50:54.489Z,-5.11
2017-01-17T04:51:24.520Z,-5.17
2017-01-17T04:51:54.543Z,-5.24
2017-01-17T04:52:24.568Z,-5.13
2017-01-17T04:52:54.600Z,-5.12
2017-01-17T04:53:24.621Z,-5.2
2017-01-17T04:53:54.651Z,-5.2
2017-01-17T04:54:24.680Z,-5.23
2017-01-17T04:54:54.708Z,-5.2
2017-01-17T04:55:24.742Z,-5.2
2017-01-17T04:55:54.768Z,-5.12
2017-01-17T04:56:24.802Z,-5.17
2017-01-17T04:56:54.825Z,-5.31
2017-01-17T04:57:24.852Z,-5.2
2017-01-17T04:57:54.902Z,-5.28
2017-01-17T04:58:24.902Z,-5.31
2017-01-17T04:58:54.932Z,-5.3
2017-01-17T04:59:24.966Z,-5.31
2017-01-17T04:59:54.992Z,-5.28
2017-01-17T05:00:25.030Z,-5.42
2017-01-17T05:00:55.040Z,-5.45
2017-01-17T05:01:25.399Z,-5.41
2017-01-17T05:01:55.105Z,-5.41
2017-01-17T05:02:25.128Z,-5.43
2017-01-17T05:02:55.153Z,-5.46
2017-01-17T05:03:25.185Z,-5.45
2017-01-17T05:03:55.209Z,-5.48
2017-01-17T05:04:25.232Z,-5.48
2017-01-17T05:04:55.269Z,-5.48
2017-01-17T05:05:25.304Z,-5.53
2017-01-17T05:05:55.318Z,-5.51
2017-01-17T05:06:25.365Z,-5.6
2017-01-17T05:06:55.527Z,-5.6
2017-01-17T05:07:25.406Z,-5.6
2017-01-17T05:07:55.429Z,-5.59
2017-01-17T05:08:25.462Z,-5.59
2017-01-17T05:08:55.484Z,-5.69
2017-01-17T05:09:25.521Z,-5.6
2017-01-17T05:09:55.552Z,-5.66
2017-01-17T05:10:25.570Z,-5.71
2017-01-17T05:10:55.600Z,-5.78
2017-01-17T05:11:25.622Z,-5.78
2017-01-17T05:11:55.656Z,-5.82
2017-01-17T05:12:25.683Z,-5.91
2017-01-17T05:12:55.703Z,-5.82
2017-01-17T05:13:25.730Z,-5.95
2017-01-17T05:13:55.770Z,-5.88
2017-01-17T05:14:25.786Z,-5.95
2017-01-17T05:14:55.814Z,-5.98
2017-01-17T05:15:25.840Z,-5.96
2017-01-17T05:15:55.908Z,-5.96
2017-01-17T05:16:25.909Z,-6.1
2017-01-17T05:16:55.940Z,-6.14
2017-01-17T05:17:25.962Z,-6.06
2017-01-17T05:17:55.986Z,-6.1
2017-01-17T05:18:26.010Z,-6.03
2017-01-17T05:18:56.042Z,-6.1
2017-01-17T05:19:26.069Z,-6.1
2017-01-17T05:19:56.096Z,-6.19
2017-01-17T05:20:26.120Z,-6.1
2017-01-17T05:20:56.148Z,-6.14
2017-01-17T05:21:26.174Z,-6.19
2017-01-17T05:21:56.197Z,-6.19
2017-01-17T05:22:26.234Z,-6.19
2017-01-17T05:22:56.263Z,-6.23
2017-01-17T05:23:26.283Z,-6.24
2017-01-17T05:23:56.315Z,-6.21
2017-01-17T05:24:26.339Z,-6.21
2017-01-17T05:24:56.366Z,-6.29
2017-01-17T05:25:26.398Z,-6.34
2017-01-17T05:25:56.420Z,-6.34
2017-01-17T05:26:26.450Z,-6.34
2017-01-17T05:26:56.483Z,-6.39
2017-01-17T05:27:26.505Z,-6.37
2017-01-17T05:27:56.532Z,-6.34
2017-01-17T05:28:26.558Z,-6.31
2017-01-17T05:28:56.591Z,-6.32
2017-01-17T05:29:26.614Z,-6.29
2017-01-17T05:29:56.641Z,-6.34
2017-01-17T05:30:26.673Z,-6.29
2017-01-17T05:30:56.697Z,-6.37
2017-01-17T05:31:26.718Z,-6.38
2017-01-17T05:31:56.751Z,-6.42
2017-01-17T05:32:26.781Z,-6.35
2017-01-17T05:32:56.806Z,-6.37
2017-01-17T05:33:26.840Z,-6.39
2017-01-17T05:33:56.888Z,-6.37
2017-01-17T05:34:26.890Z,-6.44
2017-01-17T05:34:56.919Z,-6.45
2017-01-17T05:35:26.940Z,-6.42
2017-01-17T05:35:56.974Z,-6.35
2017-01-17T05:36:27.001Z,-6.48
2017-01-17T05:36:57.032Z,-6.45
2017-01-17T05:37:27.058Z,-6.39
2017-01-17T05:37:57.091Z,-6.44
2017-01-17T05:38:27.112Z,-6.37
2017-01-17T05:38:57.138Z,-6.42
2017-01-17T05:39:27.165Z,-6.39
2017-01-17T05:39:57.206Z,-6.37
2017-01-17T05:40:27.217Z,-6.37
2017-01-17T05:40:57.251Z,-6.45
2017-01-17T05:41:27.275Z,-6.41
2017-01-17T05:41:57.310Z,-6.44
2017-01-17T05:42:27.338Z,-6.48
2017-01-17T05:42:57.362Z,-6.45
2017-01-17T05:43:27.398Z,-6.29
2017-01-17T05:43:57.414Z,-6.39
2017-01-17T05:44:27.441Z,-6.39
2017-01-17T05:44:57.474Z,-6.34
2017-01-17T05:45:27.493Z,-6.35
2017-01-17T05:45:57.518Z,-6.34
2017-01-17T05:46:27.552Z,-6.34
2017-01-17T05:46:57.592Z,-6.35
2017-01-17T05:47:27.602Z,-6.32
2017-01-17T05:47:57.634Z,-6.2
2017-01-17T05:48:27.652Z,-6.24
2017-01-17T05:48:57.684Z,-6.24
2017-01-17T05:49:27.713Z,-6.24
2017-01-17T05:49:57.746Z,-6.23
2017-01-17T05:50:27.773Z,-6.21
2017-01-17T05:50:57.791Z,-6.19
2017-01-17T05:51:27.818Z,-6.17
2017-01-17T05:51:57.875Z,-6.21
2017-01-17T05:52:27.876Z,-6.16
2017-01-17T05:52:57.904Z,-6.23
2017-01-17T05:53:27.945Z,-6.16
2017-01-17T05:53:57.999Z,-6.06
2017-01-17T05:54:27.981Z,-6.06
2017-01-17T05:54:58.014Z,-6.06
2017-01-17T05:55:28.046Z,-6.05
2017-01-17T05:55:58.076Z,-6.06
2017-01-17T05:56:28.096Z,-6.06
2017-01-17T05:56:58.127Z,-6.06
2017-01-17T05:57:28.153Z,-6.08
2017-01-17T05:57:58.183Z,-6.02
2017-01-17T05:58:28.216Z,-6.08
2017-01-17T05:58:58.236Z,-6.13
2017-01-17T05:59:28.267Z,-6.19
2017-01-17T05:59:58.298Z,-6.14
2017-01-17T06:00:28.315Z,-6.17
2017-01-17T06:00:58.349Z,-6.19
2017-01-17T06:01:28.381Z,-6.13
2017-01-17T06:01:58.404Z,-6.16
2017-01-17T06:02:28.428Z,-6.14
2017-01-17T06:02:58.756Z,-6.17
2017-01-17T06:03:28.482Z,-6.17
2017-01-17T06:03:58.521Z,-6.16
2017-01-17T06:04:28.543Z,-6.21
2017-01-17T06:04:58.562Z,-6.19
2017-01-17T06:05:28.595Z,-6.17
2017-01-17T06:05:58.622Z,-6.17
2017-01-17T06:06:28.681Z,-6.17
2017-01-17T06:06:58.672Z,-6.19
2017-01-17T06:07:28.705Z,-6.21
2017-01-17T06:07:58.736Z,-6.16
2017-01-17T06:08:28.765Z,-6.21
2017-01-17T06:08:58.785Z,-6.23
2017-01-17T06:09:28.816Z,-6.14
2017-01-17T06:09:58.845Z,-6.23
2017-01-17T06:10:28.871Z,-6.2
2017-01-17T06:10:58.901Z,-6.31
2017-01-17T06:11:28.923Z,-6.27
2017-01-17T06:11:58.949Z,-6.29
2017-01-17T06:12:28.983Z,-6.21
2017-01-17T06:12:59.003Z,-6.17
2017-01-17T06:13:29.046Z,-6.21
2017-01-17T06:13:59.063Z,-6.26
2017-01-17T06:14:29.092Z,-6.23
2017-01-17T06:14:59.121Z,-6.23
2017-01-17T06:15:29.144Z,-6.23
2017-01-17T06:15:59.170Z,-6.19
2017-01-17T06:16:29.201Z,-6.2
2017-01-17T06:16:59.236Z,-6.1
2017-01-17T06:17:29.253Z,-6.24
2017-01-17T06:17:59.294Z,-6.21
2017-01-17T06:18:29.325Z,-6.19
2017-01-17T06:18:59.335Z,-6.19
2017-01-17T06:19:29.367Z,-6.21
2017-01-17T06:19:59.398Z,-6.23
2017-01-17T06:20:29.423Z,-6.16
2017-01-17T06:20:59.447Z,-6.2
2017-01-17T06:21:29.479Z,-6.2
2017-01-17T06:21:59.506Z,-6.19
2017-01-17T06:22:29.534Z,-6.17
2017-01-17T06:22:59.557Z,-6.26
2017-01-17T06:23:29.591Z,-6.23
2017-01-17T06:23:59.619Z,-6.17
2017-01-17T06:24:29.645Z,-6.2
2017-01-17T06:24:59.668Z,-6.21
2017-01-17T06:25:29.697Z,-6.17
2017-01-17T06:25:59.726Z,-6.24
2017-01-17T06:26:59.784Z,-6.34
2017-01-17T06:27:29.807Z,-6.31
2017-01-17T06:27:59.833Z,-6.29
2017-01-17T06:28:30.063Z,-6.41